Time;durP1;ratioP1;P1;durP2;ratioP2;P2;SDS_P1;SDS_P2;PMS_P1;PMS_P2;Temp;Humidity;BMP_temperature;BMP_pressure;BME280_temperature;BME280_humidity;BME280_pressure;Samples;Min_cycle;Max_cycle;Signal;HPM_P1;HPM_P2
2021/09/27 00:00:35;;;;;;;9.63;3.90;;;13.50;99.90;;;;;;5034047;28;20209;-70
2021/09/27 00:03:03;;;;;;;6.23;3.70;;;13.40;99.90;;;;;;5020594;28;20201;-70
2021/09/27 00:05:30;;;;;;;9.43;4.53;;;13.40;99.90;;;;;;5033533;28;20202;-71
2021/09/27 00:07:57;;;;;;;6.07;3.83;;;13.40;99.90;;;;;;5033790;28;20214;-71
2021/09/27 00:10:26;;;;;;;7.57;3.80;;;13.40;99.90;;;;;;5035122;28;20203;-71
2021/09/27 00:12:54;;;;;;;4.43;2.90;;;13.40;99.90;;;;;;5033865;28;20715;-70
2021/09/27 00:15:25;;;;;;;10.93;4.00;;;13.40;99.90;;;;;;5033614;28;20202;-70
2021/09/27 00:17:54;;;;;;;6.20;3.60;;;13.30;99.90;;;;;;5033818;28;20663;-70
2021/09/27 00:20:21;;;;;;;6.57;3.60;;;13.30;99.90;;;;;;5033798;28;20207;-70
2021/09/27 00:22:50;;;;;;;4.83;3.63;;;13.30;99.90;;;;;;5033434;28;20240;-70
2021/09/27 00:25:21;;;;;;;5.60;2.93;;;13.30;99.90;;;;;;5021512;28;20254;-70
2021/09/27 00:27:48;;;;;;;8.67;3.63;;;13.30;99.90;;;;;;5033739;28;20238;-70
2021/09/27 00:30:17;;;;;;;10.20;3.63;;;13.30;99.90;;;;;;5021198;28;20211;-71
2021/09/27 00:32:44;;;;;;;6.20;3.47;;;13.40;99.90;;;;;;5033853;28;20297;-71
2021/09/27 00:35:16;;;;;;;8.13;3.43;;;13.20;99.90;;;;;;5033899;28;20644;-70
2021/09/27 00:37:43;;;;;;;8.77;3.33;;;13.20;99.90;;;;;;5033978;28;20230;-70
2021/09/27 00:40:21;;;;;;;7.60;3.60;;;13.20;99.90;;;;;;5033664;28;20297;-70
2021/09/27 00:42:49;;;;;;;6.73;3.40;;;13.10;99.90;;;;;;5033686;28;20261;-70
2021/09/27 00:45:19;;;;;;;5.07;3.17;;;13.10;99.90;;;;;;5032949;28;20203;-70
2021/09/27 00:47:47;;;;;;;5.83;3.17;;;13.10;99.90;;;;;;5033443;28;20655;-70
2021/09/27 00:50:18;;;;;;;7.43;3.10;;;13.10;99.90;;;;;;5033934;28;20629;-70
2021/09/27 00:52:46;;;;;;;5.23;3.20;;;13.10;99.90;;;;;;5033237;28;20293;-71
2021/09/27 00:55:15;;;;;;;5.17;2.83;;;13.10;99.90;;;;;;5033530;28;20207;-70
2021/09/27 00:57:42;;;;;;;4.87;3.03;;;13.10;99.90;;;;;;5033162;28;20301;-70
2021/09/27 01:00:12;;;;;;;7.13;3.20;;;13.10;99.90;;;;;;5032709;28;20289;-70
2021/09/27 01:02:39;;;;;;;5.77;3.47;;;13.10;99.90;;;;;;5033349;28;20211;-70
2021/09/27 01:05:10;;;;;;;7.07;3.20;;;13.10;99.90;;;;;;5033016;28;20210;-70
2021/09/27 01:07:45;;;;;;;6.20;2.73;;;13.00;99.90;;;;;;5033067;28;20206;-70
2021/09/27 01:10:42;;;;;;;8.87;3.47;;;13.10;99.90;;;;;;5033876;28;20828;-71
2021/09/27 01:13:26;;;;;;;4.10;2.93;;;13.00;99.90;;;;;;5024240;28;20209;-69
2021/09/27 01:16:00;;;;;;;8.17;3.27;;;13.00;99.90;;;;;;5027114;28;20206;-70
2021/09/27 01:18:40;;;;;;;6.23;3.50;;;13.00;99.90;;;;;;5020291;28;20766;-70
2021/09/27 01:21:26;;;;;;;8.30;3.67;;;12.90;99.90;;;;;;5032408;28;20603;-70
2021/09/27 01:24:24;;;;;;;6.10;2.97;;;12.90;99.90;;;;;;5031517;28;20202;-71
2021/09/27 01:27:09;;;;;;;4.50;2.77;;;12.80;99.90;;;;;;5024448;28;20206;-70
2021/09/27 01:30:08;;;;;;;6.43;3.00;;;12.80;99.90;;;;;;5032968;28;20262;-70
2021/09/27 01:32:40;;;;;;;5.83;3.30;;;12.80;99.90;;;;;;5033114;28;20225;-70
2021/09/27 01:35:22;;;;;;;5.97;3.50;;;12.80;99.90;;;;;;5033106;28;20625;-70
2021/09/27 01:38:03;;;;;;;5.37;3.03;;;12.70;99.90;;;;;;5033654;28;20242;-71
2021/09/27 01:40:39;;;;;;;4.30;2.93;;;12.60;99.90;;;;;;5020055;28;20722;-71
2021/09/27 01:43:15;;;;;;;6.83;2.87;;;12.60;99.90;;;;;;5033659;28;20298;-71
2021/09/27 01:45:49;;;;;;;7.50;2.70;;;12.60;99.90;;;;;;5031871;28;20237;-70
2021/09/27 01:48:22;;;;;;;5.97;3.43;;;12.50;99.90;;;;;;5033161;28;20206;-72
2021/09/27 01:50:57;;;;;;;5.43;3.13;;;12.50;99.90;;;;;;5030042;28;20501;-70
2021/09/27 01:53:29;;;;;;;5.63;3.27;;;12.50;99.90;;;;;;5023852;28;20216;-71
2021/09/27 01:56:02;;;;;;;6.70;3.23;;;12.50;99.90;;;;;;5032458;28;20289;-71
2021/09/27 01:58:40;;;;;;;6.97;3.60;;;12.40;99.90;;;;;;5032519;28;20210;-71
2021/09/27 02:01:14;;;;;;;5.43;2.60;;;12.40;99.90;;;;;;5032922;28;20199;-70
2021/09/27 02:03:46;;;;;;;6.03;2.90;;;12.40;99.90;;;;;;5031959;28;20212;-70
2021/09/27 02:06:18;;;;;;;8.27;3.23;;;12.40;99.90;;;;;;5033117;28;20203;-71
2021/09/27 02:08:58;;;;;;;4.60;2.70;;;12.30;99.90;;;;;;5032668;28;20198;-71
2021/09/27 02:11:28;;;;;;;4.80;3.07;;;12.40;99.90;;;;;;5032714;28;20218;-70
2021/09/27 02:14:14;;;;;;;6.90;3.27;;;12.40;99.90;;;;;;5031754;28;20611;-70
2021/09/27 02:16:46;;;;;;;4.73;2.90;;;12.30;99.90;;;;;;5027345;28;20614;-70
2021/09/27 02:19:22;;;;;;;4.63;3.10;;;12.40;99.90;;;;;;5032079;28;20203;-70
2021/09/27 02:21:55;;;;;;;4.60;2.87;;;12.30;99.90;;;;;;5031912;28;20202;-71
2021/09/27 02:24:31;;;;;;;4.60;3.00;;;12.40;99.90;;;;;;5031525;28;20565;-70
2021/09/27 02:26:58;;;;;;;7.03;3.10;;;12.40;99.90;;;;;;5019382;28;20206;-71
2021/09/27 02:29:25;;;;;;;5.13;2.87;;;12.40;99.90;;;;;;5031415;28;20249;-71
2021/09/27 02:32:01;;;;;;;5.33;3.00;;;12.40;99.90;;;;;;5031346;28;20228;-70
2021/09/27 02:34:38;;;;;;;6.40;3.33;;;12.40;99.90;;;;;;5031812;28;20679;-71
2021/09/27 02:37:13;;;;;;;5.57;2.67;;;12.30;99.90;;;;;;5017904;28;20222;-70
2021/09/27 02:39:47;;;;;;;4.50;3.30;;;12.30;99.90;;;;;;5031433;28;20209;-71
2021/09/27 02:42:22;;;;;;;4.57;2.40;;;12.30;99.90;;;;;;5031408;28;20198;-71
2021/09/27 02:44:49;;;;;;;5.97;2.80;;;12.40;99.90;;;;;;5029969;28;20205;-70
2021/09/27 02:47:22;;;;;;;4.40;2.70;;;12.30;99.90;;;;;;5018943;28;20217;-70
2021/09/27 02:49:55;;;;;;;6.77;3.10;;;12.30;99.90;;;;;;5031601;28;20209;-70
2021/09/27 02:52:23;;;;;;;4.20;2.90;;;12.20;99.90;;;;;;5027347;28;20218;-70
2021/09/27 02:54:53;;;;;;;5.17;3.20;;;12.30;99.90;;;;;;5031108;28;20202;-71
2021/09/27 02:57:45;;;;;;;5.57;3.70;;;12.30;99.90;;;;;;5031555;28;20202;-70
2021/09/27 03:00:16;;;;;;;5.30;2.90;;;12.20;99.90;;;;;;5032700;28;20658;-75
2021/09/27 03:02:56;;;;;;;6.97;3.53;;;12.20;99.90;;;;;;5028991;28;20607;-76
2021/09/27 03:05:35;;;;;;;4.63;3.33;;;12.20;99.90;;;;;;5031803;28;20542;-70
2021/09/27 03:08:27;;;;;;;6.50;2.87;;;12.30;99.90;;;;;;5031396;28;20294;-70
2021/09/27 03:11:11;;;;;;;7.97;3.40;;;12.20;99.90;;;;;;5031116;28;20203;-70
2021/09/27 03:13:45;;;;;;;4.63;3.27;;;12.30;99.90;;;;;;5031502;28;20203;-70
2021/09/27 03:16:30;;;;;;;4.83;3.13;;;12.20;99.90;;;;;;5032830;28;20257;-70
2021/09/27 03:19:18;;;;;;;6.73;3.23;;;12.20;99.90;;;;;;5031216;28;20210;-70
2021/09/27 03:21:58;;;;;;;5.07;3.00;;;12.10;99.90;;;;;;5031505;28;20267;-70
2021/09/27 03:24:43;;;;;;;7.27;3.30;;;12.10;99.90;;;;;;5033750;28;20202;-70
2021/09/27 03:27:18;;;;;;;7.03;4.47;;;12.00;99.90;;;;;;5035382;28;20194;-70
2021/09/27 03:30:02;;;;;;;3.93;3.10;;;12.00;99.90;;;;;;5035403;28;20239;-70
2021/09/27 03:32:41;;;;;;;3.73;2.97;;;12.00;99.90;;;;;;5035346;28;20698;-71
2021/09/27 03:35:14;;;;;;;6.00;3.20;;;12.00;99.90;;;;;;5034571;28;20203;-71
2021/09/27 03:37:53;;;;;;;7.03;3.23;;;11.90;99.90;;;;;;5035004;28;20737;-71
2021/09/27 03:40:33;;;;;;;3.80;3.00;;;11.90;99.90;;;;;;5035394;28;20286;-70
2021/09/27 03:43:16;;;;;;;7.43;3.33;;;11.90;99.90;;;;;;5035665;28;20194;-70
2021/09/27 03:45:55;;;;;;;7.47;3.50;;;11.80;99.90;;;;;;5033064;28;20205;-70
2021/09/27 03:48:27;;;;;;;6.33;3.20;;;11.70;99.90;;;;;;5034630;28;20446;-70
2021/09/27 03:50:57;;;;;;;7.70;3.33;;;11.70;99.90;;;;;;5034880;28;20297;-71
2021/09/27 03:53:32;;;;;;;6.43;3.73;;;11.60;99.90;;;;;;5024009;28;20219;-70
2021/09/27 03:56:05;;;;;;;7.63;3.20;;;11.50;99.90;;;;;;5019109;28;20198;-70
2021/09/27 03:58:36;;;;;;;7.03;3.63;;;11.50;99.90;;;;;;5034962;28;20289;-70
2021/09/27 04:01:09;;;;;;;5.03;3.80;;;11.40;99.90;;;;;;5034624;28;20272;-71
2021/09/27 04:03:53;;;;;;;8.93;3.50;;;11.40;99.90;;;;;;5034350;28;20199;-71
2021/09/27 04:06:39;;;;;;;9.93;3.43;;;11.30;99.90;;;;;;5034123;28;20205;-71
2021/09/27 04:09:11;;;;;;;5.67;3.40;;;11.30;99.90;;;;;;5035126;28;20294;-71
2021/09/27 04:11:48;;;;;;;10.10;3.80;;;11.30;99.90;;;;;;5034743;28;20203;-70
2021/09/27 04:14:19;;;;;;;4.97;3.20;;;11.20;99.90;;;;;;5034171;28;20228;-70
2021/09/27 04:16:57;;;;;;;6.97;3.07;;;11.20;99.90;;;;;;5034473;28;20585;-71
2021/09/27 04:19:29;;;;;;;6.57;3.20;;;11.10;99.90;;;;;;5033915;28;20579;-70
2021/09/27 04:22:01;;;;;;;8.63;4.50;;;11.10;99.90;;;;;;5034376;28;20286;-71
2021/09/27 04:24:44;;;;;;;5.93;3.70;;;11.10;99.90;;;;;;5020055;28;20222;-71
2021/09/27 04:27:35;;;;;;;5.90;3.30;;;11.10;99.90;;;;;;5034176;28;20609;-70
2021/09/27 04:30:26;;;;;;;4.63;3.17;;;11.10;99.90;;;;;;5034068;28;20663;-71
2021/09/27 04:33:07;;;;;;;5.40;3.20;;;11.10;99.90;;;;;;5034375;28;20585;-71
2021/09/27 04:35:43;;;;;;;8.40;4.17;;;11.10;99.90;;;;;;5032930;28;20202;-71
2021/09/27 04:38:12;;;;;;;6.73;3.10;;;11.10;99.90;;;;;;5034109;28;20225;-70
2021/09/27 04:40:54;;;;;;;9.17;3.50;;;11.10;99.90;;;;;;5033733;28;20221;-70
2021/09/27 04:43:32;;;;;;;5.77;3.63;;;11.10;99.90;;;;;;5034177;28;20207;-70
2021/09/27 04:46:08;;;;;;;8.43;3.27;;;11.10;99.90;;;;;;5033920;28;20207;-71
2021/09/27 04:48:53;;;;;;;5.97;3.33;;;11.10;99.90;;;;;;5031294;28;20206;-71
2021/09/27 04:51:33;;;;;;;5.73;4.27;;;11.10;99.90;;;;;;5025884;28;20298;-71
2021/09/27 04:54:16;;;;;;;5.37;3.73;;;11.10;99.90;;;;;;5033953;28;20293;-71
2021/09/27 04:56:57;;;;;;;6.87;4.00;;;11.10;99.90;;;;;;5033647;28;20211;-70
2021/09/27 04:59:43;;;;;;;5.60;3.93;;;11.10;99.90;;;;;;5033804;28;20202;-70
2021/09/27 05:02:35;;;;;;;6.33;3.53;;;11.10;99.90;;;;;;5033524;28;20245;-73
2021/09/27 05:05:09;;;;;;;6.63;3.17;;;11.10;99.90;;;;;;5025421;28;20306;-71
2021/09/27 05:08:15;;;;;;;5.63;3.30;;;11.10;99.90;;;;;;5033206;28;20198;-71
2021/09/27 05:11:04;;;;;;;6.47;3.33;;;11.10;99.90;;;;;;5038103;28;20216;-70
2021/09/27 05:13:51;;;;;;;7.23;4.03;;;11.20;99.90;;;;;;5038087;28;20214;-71
2021/09/27 05:16:31;;;;;;;6.53;3.57;;;11.20;99.90;;;;;;5039302;28;20210;-72
2021/09/27 05:19:15;;;;;;;7.43;3.60;;;11.20;99.90;;;;;;5046557;28;20565;-71
2021/09/27 05:21:59;;;;;;;7.17;3.27;;;11.30;99.90;;;;;;5033080;28;20213;-70
2021/09/27 05:24:55;;;;;;;8.87;3.43;;;11.40;99.90;;;;;;5026544;28;20219;-71
2021/09/27 05:27:42;;;;;;;8.43;3.50;;;11.50;99.90;;;;;;5032526;28;20202;-70
2021/09/27 05:30:19;;;;;;;7.10;3.70;;;11.60;99.90;;;;;;5032121;28;20202;-71
2021/09/27 05:32:54;;;;;;;4.83;3.17;;;11.70;99.90;;;;;;5030594;28;20308;-71
2021/09/27 05:35:47;;;;;;;7.73;4.07;;;11.70;99.90;;;;;;5025569;28;20194;-70
2021/09/27 05:38:26;;;;;;;6.43;3.87;;;11.80;99.90;;;;;;5029526;28;20617;-71
2021/09/27 05:41:05;;;;;;;7.33;3.80;;;11.80;99.90;;;;;;5032070;28;20218;-72
2021/09/27 05:43:45;;;;;;;8.47;4.33;;;11.80;99.90;;;;;;5030293;28;20195;-70
2021/09/27 05:46:31;;;;;;;7.20;3.70;;;11.80;99.90;;;;;;5024982;28;20210;-72
2021/09/27 05:49:04;;;;;;;7.23;3.87;;;11.90;99.90;;;;;;5032464;28;20206;-74
2021/09/27 05:51:41;;;;;;;5.53;3.60;;;11.90;99.90;;;;;;5032566;28;20632;-71
2021/09/27 05:54:23;;;;;;;8.50;4.27;;;12.00;99.90;;;;;;5034662;28;20222;-70
2021/09/27 05:56:58;;;;;;;6.37;3.73;;;12.00;99.90;;;;;;5030642;28;20198;-77
2021/09/27 05:59:30;;;;;;;5.53;3.47;;;12.00;99.90;;;;;;5034148;28;20214;-74
2021/09/27 06:02:08;;;;;;;6.87;3.47;;;12.10;99.90;;;;;;5031535;28;20214;-72
2021/09/27 06:04:44;;;;;;;7.20;3.97;;;12.20;99.90;;;;;;5032988;28;20291;-72
2021/09/27 06:07:16;;;;;;;5.17;3.27;;;12.20;99.90;;;;;;5031770;28;20209;-71
2021/09/27 06:09:58;;;;;;;8.13;3.57;;;12.20;99.90;;;;;;5032706;28;20203;-71
2021/09/27 06:12:30;;;;;;;7.17;3.50;;;12.20;99.90;;;;;;5033512;28;20772;-72
2021/09/27 06:15:01;;;;;;;5.90;3.47;;;12.20;99.90;;;;;;5028953;28;20213;-72
2021/09/27 06:17:55;;;;;;;6.17;4.23;;;12.30;99.90;;;;;;5021191;28;20213;-71
2021/09/27 06:20:31;;;;;;;7.57;3.07;;;12.30;99.90;;;;;;5021306;28;20581;-73
2021/09/27 06:23:18;;;;;;;7.20;3.77;;;12.40;99.90;;;;;;5031967;28;20222;-72
2021/09/27 06:25:56;;;;;;;7.83;3.77;;;12.40;99.90;;;;;;5027091;28;20290;-73
2021/09/27 06:28:31;;;;;;;7.03;3.67;;;12.50;99.90;;;;;;5031808;28;20738;-72
2021/09/27 06:31:05;;;;;;;9.23;3.80;;;12.60;99.90;;;;;;5029788;28;20200;-74
2021/09/27 06:33:40;;;;;;;6.90;3.90;;;12.70;99.90;;;;;;5031672;28;20621;-73
2021/09/27 06:36:11;;;;;;;6.90;3.60;;;12.70;99.90;;;;;;5031732;28;20321;-74
2021/09/27 06:38:39;;;;;;;6.07;3.30;;;12.80;99.90;;;;;;5032570;28;20301;-72
2021/09/27 06:41:11;;;;;;;5.33;3.30;;;12.90;99.90;;;;;;5034249;28;20206;-74
2021/09/27 06:43:39;;;;;;;6.80;3.13;;;12.90;99.90;;;;;;5044241;28;20241;-74
2021/09/27 06:46:06;;;;;;;6.07;3.80;;;13.00;99.90;;;;;;5043600;28;20518;-73
2021/09/27 06:48:34;;;;;;;7.87;3.73;;;13.10;99.90;;;;;;5040137;28;20258;-76
2021/09/27 06:51:02;;;;;;;5.63;3.07;;;13.20;99.90;;;;;;5031994;28;20203;-71
2021/09/27 06:53:30;;;;;;;7.70;3.40;;;13.30;99.90;;;;;;5030330;28;20315;-74
2021/09/27 06:55:57;;;;;;;11.13;4.73;;;13.40;99.90;;;;;;5030980;28;20207;-73
2021/09/27 06:58:24;;;;;;;7.67;3.10;;;13.40;99.90;;;;;;5030192;28;20542;-74
2021/09/27 07:00:51;;;;;;;7.20;3.37;;;13.60;99.90;;;;;;5024957;28;20213;-73
2021/09/27 07:03:18;;;;;;;8.17;3.00;;;13.70;99.90;;;;;;5026906;28;20209;-74
2021/09/27 07:05:47;;;;;;;5.90;3.00;;;13.80;99.90;;;;;;5030031;28;20237;-74
2021/09/27 07:08:14;;;;;;;6.73;3.03;;;13.90;99.90;;;;;;5028699;28;20214;-74
2021/09/27 07:10:41;;;;;;;8.77;3.13;;;14.00;99.90;;;;;;5030925;28;20205;-73
2021/09/27 07:13:08;;;;;;;4.87;2.70;;;14.10;99.90;;;;;;5031555;28;20250;-73
2021/09/27 07:15:35;;;;;;;5.50;3.10;;;14.30;99.90;;;;;;5031704;28;20661;-73
2021/09/27 07:18:02;;;;;;;7.87;3.20;;;14.40;99.90;;;;;;5031859;28;20774;-74
2021/09/27 07:20:29;;;;;;;5.27;2.90;;;14.50;99.90;;;;;;5029737;28;20670;-75
2021/09/27 07:22:58;;;;;;;6.33;3.20;;;14.70;99.90;;;;;;5034295;28;20209;-70
2021/09/27 07:25:26;;;;;;;6.50;3.13;;;14.80;99.90;;;;;;5034096;28;20209;-72
2021/09/27 07:27:54;;;;;;;4.97;2.33;;;15.00;99.90;;;;;;5030486;28;20242;-72
2021/09/27 07:30:22;;;;;;;5.73;2.87;;;15.20;99.90;;;;;;5032130;28;20694;-70
2021/09/27 07:32:49;;;;;;;6.13;2.50;;;15.30;99.90;;;;;;5046190;28;20230;-71
2021/09/27 07:35:21;;;;;;;5.23;2.20;;;15.40;99.90;;;;;;5033154;28;20374;-70
2021/09/27 07:37:48;;;;;;;6.27;2.67;;;15.60;99.90;;;;;;5031640;28;20262;-70
2021/09/27 07:40:19;;;;;;;5.20;2.43;;;15.80;99.90;;;;;;5032139;28;20270;-72
2021/09/27 07:42:46;;;;;;;4.90;2.70;;;16.00;99.90;;;;;;5031777;28;20202;-69
2021/09/27 07:45:15;;;;;;;4.53;2.10;;;16.20;99.90;;;;;;5032522;28;20222;-72
2021/09/27 07:47:42;;;;;;;6.80;2.07;;;16.30;99.90;;;;;;5032359;28;20549;-70
2021/09/27 07:50:12;;;;;;;5.53;3.03;;;16.30;99.90;;;;;;5030940;28;20207;-70
2021/09/27 07:52:39;;;;;;;4.37;2.60;;;16.40;99.90;;;;;;5031821;28;20202;-71
2021/09/27 07:55:07;;;;;;;5.77;2.67;;;16.50;99.90;;;;;;5031424;28;20597;-69
2021/09/27 07:57:36;;;;;;;7.17;2.40;;;16.70;99.90;;;;;;5033286;28;20207;-71
2021/09/27 08:00:04;;;;;;;6.63;2.83;;;16.80;99.90;;;;;;5032959;28;20215;-73
2021/09/27 08:02:32;;;;;;;6.90;2.33;;;16.90;99.90;;;;;;5031550;28;20365;-74
2021/09/27 08:04:59;;;;;;;3.13;2.00;;;17.10;99.90;;;;;;5030523;28;20237;-72
2021/09/27 08:07:26;;;;;;;6.83;2.23;;;17.10;99.90;;;;;;5031945;28;20211;-71
2021/09/27 08:09:53;;;;;;;3.10;1.70;;;17.20;99.90;;;;;;5031903;28;20217;-71
2021/09/27 08:12:20;;;;;;;3.00;2.30;;;17.30;99.90;;;;;;5032623;28;20211;-72
2021/09/27 08:14:49;;;;;;;2.90;2.00;;;17.50;99.90;;;;;;5029782;28;20244;-70
2021/09/27 08:17:16;;;;;;;3.73;1.90;;;17.50;99.90;;;;;;5034163;28;20210;-72
2021/09/27 08:19:45;;;;;;;3.50;1.80;;;17.50;99.90;;;;;;5034747;28;20238;-72
2021/09/27 08:22:13;;;;;;;3.37;2.00;;;17.60;99.90;;;;;;5035146;28;20215;-70
2021/09/27 08:24:40;;;;;;;6.47;1.70;;;17.70;99.90;;;;;;5035576;28;20234;-71
2021/09/27 08:27:08;;;;;;;4.03;1.90;;;17.70;99.90;;;;;;5034795;28;20230;-72
2021/09/27 08:29:35;;;;;;;5.30;1.80;;;17.80;99.90;;;;;;5034700;28;20669;-71
2021/09/27 08:32:04;;;;;;;4.40;1.63;;;18.00;99.90;;;;;;5035028;28;20206;-72
2021/09/27 08:34:31;;;;;;;4.03;1.93;;;18.20;99.90;;;;;;5022129;28;20318;-71
2021/09/27 08:36:58;;;;;;;4.88;1.85;;;18.30;99.90;;;;;;5034599;28;20230;-72
2021/09/27 08:39:25;;;;;;;3.28;1.70;;;18.40;99.90;;;;;;5035388;28;20260;-73
2021/09/27 08:41:57;;;;;;;3.70;2.35;;;18.50;99.90;;;;;;5030733;28;20225;-71
2021/09/27 08:44:37;;;;;;;5.70;1.73;;;18.50;99.90;;;;;;5043021;28;20290;-73
2021/09/27 08:47:11;;;;;;;5.50;1.60;;;18.70;99.90;;;;;;5032990;28;20325;-74
2021/09/27 08:49:44;;;;;;;3.53;1.58;;;18.90;99.90;;;;;;5043376;28;20631;-72
2021/09/27 08:52:14;;;;;;;2.60;1.45;;;19.10;99.90;;;;;;5046486;28;20201;-70
2021/09/27 08:54:43;;;;;;;4.85;1.80;;;19.40;99.90;;;;;;5043362;28;20210;-70
2021/09/27 08:57:21;;;;;;;3.80;1.90;;;19.50;99.90;;;;;;5036903;28;20198;-71
2021/09/27 08:59:54;;;;;;;2.78;1.52;;;19.60;99.90;;;;;;5050644;28;20646;-70
2021/09/27 09:02:39;;;;;;;1.27;1.05;;;19.70;99.90;;;;;;5042869;28;20509;-70
2021/09/27 09:05:15;;;;;;;1.45;1.20;;;20.90;99.80;;;;;;5037728;28;20764;-68
2021/09/27 09:07:48;;;;;;;3.88;1.50;;;24.00;94.30;;;;;;5030059;28;20202;-70
2021/09/27 09:10:21;;;;;;;2.65;1.00;;;27.40;82.50;;;;;;5047797;28;20190;-70
2021/09/27 09:12:53;;;;;;;3.38;1.35;;;30.50;61.00;;;;;;5037115;28;20652;-68
2021/09/27 09:15:24;;;;;;;2.15;1.40;;;32.70;51.80;;;;;;5034274;28;20646;-72
2021/09/27 09:17:57;;;;;;;2.15;1.48;;;34.30;47.10;;;;;;5030330;28;20301;-73
2021/09/27 09:20:28;;;;;;;4.55;1.50;;;35.70;43.10;;;;;;5034523;28;20297;-69
2021/09/27 09:22:56;;;;;;;5.00;1.88;;;36.70;41.30;;;;;;5028620;28;20198;-70
2021/09/27 09:25:29;;;;;;;2.50;1.35;;;37.90;39.10;;;;;;5031757;28;20260;-72
2021/09/27 09:27:57;;;;;;;3.15;1.30;;;39.40;36.70;;;;;;5038154;28;20444;-71
2021/09/27 09:30:32;;;;;;;4.43;1.45;;;40.40;35.10;;;;;;5037413;28;20285;-73
2021/09/27 09:33:00;;;;;;;2.53;1.00;;;41.50;33.10;;;;;;5034142;28;20248;-72
2021/09/27 09:35:30;;;;;;;3.40;1.38;;;42.10;32.20;;;;;;5033375;28;20587;-72
2021/09/27 09:38:07;;;;;;;3.15;1.40;;;42.90;31.30;;;;;;5037450;28;20206;-72
2021/09/27 09:40:37;;;;;;;2.22;1.20;;;43.90;29.90;;;;;;5033497;28;20294;-72
2021/09/27 09:43:08;;;;;;;4.10;1.33;;;44.20;29.20;;;;;;5033141;28;20293;-72
2021/09/27 09:45:39;;;;;;;2.78;1.30;;;44.00;29.10;;;;;;5029530;28;20201;-72
2021/09/27 09:48:16;;;;;;;4.80;1.38;;;44.00;29.00;;;;;;5041133;28;20725;-72
2021/09/27 09:50:44;;;;;;;2.88;1.20;;;43.80;28.70;;;;;;5037186;28;20205;-72
2021/09/27 09:53:20;;;;;;;2.47;1.27;;;43.70;28.50;;;;;;5027274;28;20497;-71
2021/09/27 09:55:56;;;;;;;1.55;1.08;;;43.60;28.40;;;;;;5029726;28;20201;-71
2021/09/27 09:58:40;;;;;;;2.92;0.90;;;43.00;28.20;;;;;;5037918;28;20613;-72
2021/09/27 10:01:14;;;;;;;2.53;1.27;;;42.30;28.60;;;;;;5044558;28;20319;-72
2021/09/27 10:03:49;;;;;;;2.78;1.00;;;42.00;28.90;;;;;;5040051;28;20251;-70
2021/09/27 10:06:18;;;;;;;6.18;1.20;;;41.80;28.70;;;;;;5039258;28;20230;-72
2021/09/27 10:08:53;;;;;;;3.28;1.17;;;41.60;28.90;;;;;;5043066;28;20216;-72
2021/09/27 10:11:31;;;;;;;2.22;1.13;;;41.80;28.80;;;;;;5048808;28;20262;-72
2021/09/27 10:13:59;;;;;;;1.92;1.25;;;42.10;28.80;;;;;;5038738;28;20222;-72
2021/09/27 10:16:41;;;;;;;2.10;1.20;;;42.70;28.50;;;;;;5036382;28;20844;-73
2021/09/27 10:19:27;;;;;;;2.78;1.20;;;43.60;27.80;;;;;;5036683;28;20331;-72
2021/09/27 10:21:58;;;;;;;2.50;1.40;;;44.60;27.20;;;;;;5033694;28;20229;-70
2021/09/27 10:24:33;;;;;;;3.17;1.17;;;44.80;27.00;;;;;;5042590;28;20198;-70
2021/09/27 10:27:02;;;;;;;1.98;1.23;;;44.70;26.80;;;;;;5032208;28;20278;-71
2021/09/27 10:29:31;;;;;;;2.83;1.00;;;44.90;26.80;;;;;;5042936;28;20705;-70
2021/09/27 10:32:06;;;;;;;4.43;1.20;;;45.20;26.00;;;;;;5032597;28;20237;-71
2021/09/27 10:34:35;;;;;;;3.08;1.30;;;45.30;25.80;;;;;;5046616;28;20212;-71
2021/09/27 10:37:09;;;;;;;2.33;1.58;;;44.80;26.20;;;;;;5032521;28;20226;-70
2021/09/27 10:39:36;;;;;;;2.10;0.98;;;44.30;25.90;;;;;;5026588;28;20202;-70
2021/09/27 10:42:06;;;;;;;2.08;1.20;;;43.50;26.00;;;;;;5042731;28;20254;-70
2021/09/27 10:44:40;;;;;;;1.52;1.10;;;43.10;26.20;;;;;;5049771;28;20222;-70
2021/09/27 10:47:10;;;;;;;1.38;1.13;;;43.20;26.70;;;;;;5043488;28;20202;-70
2021/09/27 10:49:46;;;;;;;1.10;1.00;;;43.50;26.40;;;;;;5037727;28;20212;-70
2021/09/27 10:52:24;;;;;;;1.92;1.23;;;43.30;26.70;;;;;;5034521;28;20233;-70
2021/09/27 10:55:01;;;;;;;1.42;1.10;;;43.30;26.90;;;;;;5039825;28;20209;-69
2021/09/27 10:57:40;;;;;;;1.98;1.10;;;43.80;26.30;;;;;;5031176;28;20284;-70
2021/09/27 11:00:17;;;;;;;4.40;1.33;;;43.70;26.20;;;;;;5029639;28;20796;-70
2021/09/27 11:02:50;;;;;;;2.50;1.27;;;43.40;26.30;;;;;;5027833;28;20214;-70
2021/09/27 11:05:33;;;;;;;2.67;1.23;;;42.80;26.80;;;;;;5029973;28;20214;-71
2021/09/27 11:08:09;;;;;;;2.45;1.20;;;42.50;27.10;;;;;;5042839;28;20193;-70
2021/09/27 11:10:44;;;;;;;3.92;1.15;;;42.20;27.50;;;;;;5039857;28;20293;-70
2021/09/27 11:13:35;;;;;;;2.45;1.10;;;41.90;27.50;;;;;;5044130;28;20570;-69
2021/09/27 11:16:07;;;;;;;1.88;1.23;;;41.30;27.60;;;;;;5041530;28;20521;-72
2021/09/27 11:18:34;;;;;;;5.40;1.38;;;40.70;28.10;;;;;;5043265;28;20198;-70
2021/09/27 11:21:18;;;;;;;9.75;1.33;;;40.50;28.40;;;;;;5040287;28;20531;-69
2021/09/27 11:23:49;;;;;;;2.10;1.20;;;40.40;28.70;;;;;;5042928;28;20679;-69
2021/09/27 11:26:39;;;;;;;2.33;1.08;;;40.20;28.70;;;;;;5029715;28;20694;-70
2021/09/27 11:29:30;;;;;;;2.00;1.13;;;39.80;29.00;;;;;;5036441;28;20230;-69
2021/09/27 11:32:26;;;;;;;1.45;1.20;;;40.00;29.40;;;;;;5042988;28;20202;-70
2021/09/27 11:35:07;;;;;;;2.30;0.98;;;40.10;28.40;;;;;;5035544;28;20218;-70
2021/09/27 11:37:56;;;;;;;5.25;1.48;;;39.50;28.50;;;;;;5036184;28;20235;-69
2021/09/27 11:40:36;;;;;;;2.20;1.20;;;38.80;29.60;;;;;;5030956;28;20293;-71
2021/09/27 11:43:23;;;;;;;1.52;1.20;;;39.30;29.00;;;;;;5039704;28;20202;-71
2021/09/27 11:45:56;;;;;;;1.73;1.20;;;39.40;28.90;;;;;;5019484;28;20217;-71
2021/09/27 11:48:48;;;;;;;3.22;1.30;;;39.60;29.30;;;;;;5025401;28;20204;-73
2021/09/27 11:51:41;;;;;;;4.15;2.10;;;39.50;29.20;;;;;;5031467;28;20214;-72
2021/09/27 11:54:32;;;;;;;2.33;1.42;;;39.60;28.60;;;;;;5035412;28;20325;-71
2021/09/27 11:57:09;;;;;;;2.35;1.60;;;38.60;28.90;;;;;;5021062;28;20302;-72
2021/09/27 11:59:44;;;;;;;3.20;1.17;;;39.00;29.70;;;;;;5039608;28;20298;-73
2021/09/27 12:02:30;;;;;;;1.52;1.38;;;39.00;30.40;;;;;;5044166;28;20198;-72
2021/09/27 12:05:08;;;;;;;2.20;1.17;;;38.80;29.40;;;;;;5026156;28;20224;-74
2021/09/27 12:07:42;;;;;;;3.92;1.42;;;38.30;30.60;;;;;;5054329;28;20301;-73
2021/09/27 12:10:15;;;;;;;3.78;1.20;;;37.90;30.90;;;;;;5035351;28;20207;-72
2021/09/27 12:12:46;;;;;;;3.03;1.20;;;37.90;30.70;;;;;;5038203;28;20242;-72
2021/09/27 12:15:15;;;;;;;2.25;1.20;;;37.40;31.60;;;;;;5049781;28;20529;-72
2021/09/27 12:17:43;;;;;;;2.75;1.10;;;36.60;31.80;;;;;;5034583;28;20218;-72
2021/09/27 12:20:13;;;;;;;2.45;1.20;;;36.10;33.10;;;;;;5034451;28;20242;-72
2021/09/27 12:22:47;;;;;;;1.40;1.27;;;35.90;33.50;;;;;;5026438;28;20656;-71
2021/09/27 12:25:17;;;;;;;4.70;2.30;;;35.50;33.90;;;;;;5039238;28;20654;-71
2021/09/27 12:28:00;;;;;;;4.72;1.50;;;34.70;34.10;;;;;;5035155;28;20297;-72
2021/09/27 12:30:29;;;;;;;1.98;1.33;;;33.60;35.40;;;;;;5030932;28;20220;-71
2021/09/27 12:33:00;;;;;;;3.90;2.38;;;32.20;37.20;;;;;;5037940;28;20217;-70
2021/09/27 12:35:32;;;;;;;3.88;1.55;;;31.00;38.00;;;;;;5039525;28;20211;-71
2021/09/27 12:38:00;;;;;;;2.97;1.40;;;29.80;39.30;;;;;;5038839;28;20324;-70
2021/09/27 12:40:31;;;;;;;2.88;1.60;;;28.90;42.20;;;;;;5029023;28;20212;-70
2021/09/27 12:43:08;;;;;;;1.65;1.38;;;28.30;41.90;;;;;;5024969;28;20276;-69
2021/09/27 12:45:40;;;;;;;2.63;1.60;;;27.70;43.10;;;;;;5021958;28;20722;-71
2021/09/27 12:48:11;;;;;;;3.08;1.40;;;27.30;43.80;;;;;;5032688;28;20264;-68
2021/09/27 12:50:45;;;;;;;2.85;1.35;;;26.80;44.30;;;;;;5032770;28;20210;-70
2021/09/27 12:53:15;;;;;;;7.18;2.33;;;26.50;45.90;;;;;;5026283;28;20207;-71
2021/09/27 12:55:46;;;;;;;4.32;1.70;;;26.20;47.10;;;;;;5030079;28;20230;-70
2021/09/27 12:58:26;;;;;;;2.00;1.55;;;26.00;47.50;;;;;;5032973;28;20257;-70
2021/09/27 13:00:54;;;;;;;1.73;1.17;;;25.90;46.90;;;;;;5030013;28;20285;-70
2021/09/27 13:03:25;;;;;;;2.90;1.10;;;25.50;47.20;;;;;;5033453;28;20202;-71
2021/09/27 13:06:06;;;;;;;1.77;1.15;;;25.20;47.80;;;;;;5032614;28;20563;-70
2021/09/27 13:08:46;;;;;;;2.75;1.45;;;24.80;48.40;;;;;;5033374;28;20209;-71
2021/09/27 13:11:27;;;;;;;7.63;1.48;;;24.50;49.30;;;;;;5037935;28;20450;-70
2021/09/27 13:14:05;;;;;;;1.20;1.10;;;24.40;50.10;;;;;;5030559;28;20209;-70
2021/09/27 13:16:34;;;;;;;2.47;1.23;;;24.40;50.50;;;;;;5033943;28;20301;-69
2021/09/27 13:19:01;;;;;;;2.20;1.40;;;24.30;51.30;;;;;;5033345;28;20659;-72
2021/09/27 13:21:34;;;;;;;4.53;1.33;;;24.30;51.00;;;;;;5032191;28;20206;-70
2021/09/27 13:24:04;;;;;;;1.42;1.20;;;24.30;50.60;;;;;;5030305;28;20199;-70